sensor_id;sensor_type;location;lat;lon;timestamp;noise_LAeq;noise_LA_min;noise_LA_max;noise_LA01;noise_LA95
186;Laerm;55473;48.800;9.002;2023-03-14T00:00:10;49.07;40.80;68.50;;
186;Laerm;55473;48.800;9.002;2023-03-14T00:02:37;44.01;40.54;70.48;;
186;Laerm;55473;48.800;9.002;2023-03-14T00:05:03;50.96;41.09;68.49;;
186;Laerm;55473;48.800;9.002;2023-03-14T00:07:41;48.28;41.52;73.95;;
186;Laerm;55473;48.800;9.002;2023-03-14T00:10:12;49.62;41.31;64.81;;
186;Laerm;55473;48.800;9.002;2023-03-14T00:12:39;45.16;41.36;58.36;;
186;Laerm;55473;48.800;9.002;2023-03-14T00:15:06;44.74;40.55;62.23;;
186;Laerm;55473;48.800;9.002;2023-03-14T00:17:34;44.08;40.17;61.32;;
186;Laerm;55473;48.800;9.002;2023-03-14T00:20:01;46.98;40.31;64.01;;
186;Laerm;55473;48.800;9.002;2023-03-14T00:22:40;42.55;39.97;59.30;;
186;Laerm;55473;48.800;9.002;2023-03-14T00:25:09;42.13;39.71;50.77;;
186;Laerm;55473;48.800;9.002;2023-03-14T00:27:35;42.33;39.82;60.95;;
186;Laerm;55473;48.800;9.002;2023-03-14T00:30:03;42.46;39.84;53.98;;
186;Laerm;55473;48.800;9.002;2023-03-14T00:32:29;42.76;39.88;59.99;;
186;Laerm;55473;48.800;9.002;2023-03-14T00:34:55;45.45;39.83;64.35;;
186;Laerm;55473;48.800;9.002;2023-03-14T00:37:21;41.76;39.48;52.07;;
186;Laerm;55473;48.800;9.002;2023-03-14T00:39:47;41.45;39.35;46.45;;
186;Laerm;55473;48.800;9.002;2023-03-14T00:42:13;41.42;39.60;48.30;;
186;Laerm;55473;48.800;9.002;2023-03-14T00:44:39;44.20;39.69;59.59;;
186;Laerm;55473;48.800;9.002;2023-03-14T00:47:06;43.05;39.59;54.87;;
186;Laerm;55473;48.800;9.002;2023-03-14T00:49:32;41.43;39.30;47.57;;
186;Laerm;55473;48.800;9.002;2023-03-14T00:51:58;41.96;39.18;53.32;;
186;Laerm;55473;48.800;9.002;2023-03-14T00:54:24;43.60;39.72;54.12;;
186;Laerm;55473;48.800;9.002;2023-03-14T00:56:49;41.33;39.12;53.52;;
186;Laerm;55473;48.800;9.002;2023-03-14T00:59:16;45.06;39.68;61.15;;
186;Laerm;55473;48.800;9.002;2023-03-14T01:01:42;41.45;38.85;62.22;;
186;Laerm;55473;48.800;9.002;2023-03-14T01:04:08;47.03;40.48;63.14;;
186;Laerm;55473;48.800;9.002;2023-03-14T01:06:34;42.91;40.29;58.60;;
186;Laerm;55473;48.800;9.002;2023-03-14T01:09:00;42.84;39.65;52.54;;
186;Laerm;55473;48.800;9.002;2023-03-14T01:11:32;44.08;40.17;56.76;;
186;Laerm;55473;48.800;9.002;2023-03-14T01:13:59;43.22;40.19;52.38;;
186;Laerm;55473;48.800;9.002;2023-03-14T01:16:28;42.66;39.74;48.96;;
186;Laerm;55473;48.800;9.002;2023-03-14T01:18:55;43.05;39.85;60.68;;
186;Laerm;55473;48.800;9.002;2023-03-14T01:21:29;44.65;39.59;64.66;;
186;Laerm;55473;48.800;9.002;2023-03-14T01:23:58;42.90;39.49;64.38;;
186;Laerm;55473;48.800;9.002;2023-03-14T01:26:29;45.80;39.36;60.47;;
186;Laerm;55473;48.800;9.002;2023-03-14T01:28:56;42.21;39.08;64.88;;
186;Laerm;55473;48.800;9.002;2023-03-14T01:31:24;44.52;38.95;65.74;;
186;Laerm;55473;48.800;9.002;2023-03-14T01:33:50;43.79;38.79;66.78;;
186;Laerm;55473;48.800;9.002;2023-03-14T01:36:16;42.20;38.30;58.94;;
186;Laerm;55473;48.800;9.002;2023-03-14T01:38:42;40.58;37.98;58.53;;
186;Laerm;55473;48.800;9.002;2023-03-14T01:41:15;40.40;38.43;47.17;;
186;Laerm;55473;48.800;9.002;2023-03-14T01:43:42;41.05;38.44;51.56;;
186;Laerm;55473;48.800;9.002;2023-03-14T01:48:50;40.58;37.78;47.99;;
186;Laerm;55473;48.800;9.002;2023-03-14T01:57:23;40.33;37.93;45.25;;
186;Laerm;55473;48.800;9.002;2023-03-14T02:00:07;41.06;38.24;48.12;;
186;Laerm;55473;48.800;9.002;2023-03-14T02:02:41;41.63;39.04;49.31;;
186;Laerm;55473;48.800;9.002;2023-03-14T02:05:10;43.38;39.13;62.31;;
186;Laerm;55473;48.800;9.002;2023-03-14T02:07:56;41.70;39.18;47.55;;
186;Laerm;55473;48.800;9.002;2023-03-14T02:10:32;42.82;39.71;55.28;;
186;Laerm;55473;48.800;9.002;2023-03-14T02:13:04;43.14;39.20;52.72;;
186;Laerm;55473;48.800;9.002;2023-03-14T02:15:31;41.54;39.06;47.59;;
186;Laerm;55473;48.800;9.002;2023-03-14T02:17:58;42.07;39.18;54.31;;
186;Laerm;55473;48.800;9.002;2023-03-14T02:21:11;41.97;38.73;54.54;;
186;Laerm;55473;48.800;9.002;2023-03-14T02:26:40;40.88;38.26;47.90;;
186;Laerm;55473;48.800;9.002;2023-03-14T02:29:09;40.62;38.38;47.61;;
186;Laerm;55473;48.800;9.002;2023-03-14T02:31:36;40.76;38.51;51.19;;
186;Laerm;55473;48.800;9.002;2023-03-14T02:34:02;40.98;38.31;56.27;;
186;Laerm;55473;48.800;9.002;2023-03-14T02:36:30;41.06;38.18;55.78;;
186;Laerm;55473;48.800;9.002;2023-03-14T02:39:15;41.23;38.51;51.71;;
186;Laerm;55473;48.800;9.002;2023-03-14T02:41:45;42.97;38.92;58.20;;
186;Laerm;55473;48.800;9.002;2023-03-14T02:44:11;41.36;38.97;46.75;;
186;Laerm;55473;48.800;9.002;2023-03-14T02:46:37;43.36;39.01;55.99;;
186;Laerm;55473;48.800;9.002;2023-03-14T02:49:14;41.33;38.72;48.51;;
186;Laerm;55473;48.800;9.002;2023-03-14T02:51:41;41.90;38.82;56.11;;
186;Laerm;55473;48.800;9.002;2023-03-14T02:54:09;41.85;38.84;50.86;;
186;Laerm;55473;48.800;9.002;2023-03-14T02:56:35;41.19;38.53;46.46;;
186;Laerm;55473;48.800;9.002;2023-03-14T02:59:04;44.14;39.33;59.19;;
186;Laerm;55473;48.800;9.002;2023-03-14T03:01:30;41.59;38.62;49.30;;
186;Laerm;55473;48.800;9.002;2023-03-14T03:03:55;43.84;38.03;62.67;;
186;Laerm;55473;48.800;9.002;2023-03-14T03:06:22;41.37;38.51;50.18;;
186;Laerm;55473;48.800;9.002;2023-03-14T03:08:48;43.98;39.19;52.80;;
186;Laerm;55473;48.800;9.002;2023-03-14T03:11:13;41.85;38.69;49.31;;
186;Laerm;55473;48.800;9.002;2023-03-14T03:13:39;43.61;38.85;59.26;;
186;Laerm;55473;48.800;9.002;2023-03-14T03:16:05;42.41;39.54;55.42;;
186;Laerm;55473;48.800;9.002;2023-03-14T03:18:31;42.32;38.48;50.89;;
186;Laerm;55473;48.800;9.002;2023-03-14T03:21:03;41.99;38.77;54.94;;
186;Laerm;55473;48.800;9.002;2023-03-14T03:23:30;46.33;38.73;58.79;;
186;Laerm;55473;48.800;9.002;2023-03-14T03:25:59;44.55;39.39;57.51;;
186;Laerm;55473;48.800;9.002;2023-03-14T03:28:25;45.01;39.21;55.92;;
186;Laerm;55473;48.800;9.002;2023-03-14T03:30:51;44.89;39.90;60.17;;
186;Laerm;55473;48.800;9.002;2023-03-14T03:33:17;44.23;39.57;59.84;;
186;Laerm;55473;48.800;9.002;2023-03-14T03:35:49;47.83;39.40;65.55;;
186;Laerm;55473;48.800;9.002;2023-03-14T03:38:16;46.22;40.17;59.76;;
186;Laerm;55473;48.800;9.002;2023-03-14T03:40:42;44.75;40.37;58.42;;
186;Laerm;55473;48.800;9.002;2023-03-14T03:43:08;44.35;39.78;55.05;;
186;Laerm;55473;48.800;9.002;2023-03-14T03:45:34;45.08;39.57;54.46;;
186;Laerm;55473;48.800;9.002;2023-03-14T03:48:00;56.92;38.82;71.44;;
186;Laerm;55473;48.800;9.002;2023-03-14T03:50:26;53.13;39.16;71.07;;
186;Laerm;55473;48.800;9.002;2023-03-14T03:52:52;45.18;40.02;58.72;;
186;Laerm;55473;48.800;9.002;2023-03-14T03:55:18;45.00;39.85;56.77;;
186;Laerm;55473;48.800;9.002;2023-03-14T03:57:44;46.36;40.49;60.37;;
186;Laerm;55473;48.800;9.002;2023-03-14T04:00:11;47.38;40.54;63.48;;
186;Laerm;55473;48.800;9.002;2023-03-14T04:02:38;45.73;39.88;57.55;;
186;Laerm;55473;48.800;9.002;2023-03-14T04:05:04;48.47;40.47;59.55;;
186;Laerm;55473;48.800;9.002;2023-03-14T04:07:33;45.03;40.25;58.67;;
186;Laerm;55473;48.800;9.002;2023-03-14T04:09:59;44.91;40.64;54.71;;
186;Laerm;55473;48.800;9.002;2023-03-14T04:12:25;45.33;41.42;56.58;;
186;Laerm;55473;48.800;9.002;2023-03-14T04:14:51;46.87;40.25;57.25;;
186;Laerm;55473;48.800;9.002;2023-03-14T04:17:17;47.63;42.01;58.50;;
186;Laerm;55473;48.800;9.002;2023-03-14T04:19:43;45.57;40.09;58.04;;
186;Laerm;55473;48.800;9.002;2023-03-14T04:22:09;50.93;40.58;70.89;;
186;Laerm;55473;48.800;9.002;2023-03-14T04:24:35;61.35;41.02;79.54;;
186;Laerm;55473;48.800;9.002;2023-03-14T04:27:00;62.24;41.08;79.89;;
186;Laerm;55473;48.800;9.002;2023-03-14T04:29:26;62.20;42.59;80.92;;
186;Laerm;55473;48.800;9.002;2023-03-14T04:31:52;62.65;43.23;77.83;;
186;Laerm;55473;48.800;9.002;2023-03-14T04:34:18;61.58;41.71;79.47;;
186;Laerm;55473;48.800;9.002;2023-03-14T04:36:44;61.75;42.21;78.28;;
186;Laerm;55473;48.800;9.002;2023-03-14T04:39:10;61.74;41.46;78.19;;
186;Laerm;55473;48.800;9.002;2023-03-14T04:41:35;58.93;42.40;78.70;;
186;Laerm;55473;48.800;9.002;2023-03-14T04:44:01;56.53;42.80;72.74;;
186;Laerm;55473;48.800;9.002;2023-03-14T04:46:27;57.59;41.83;73.35;;
186;Laerm;55473;48.800;9.002;2023-03-14T04:48:53;58.44;42.03;72.27;;
186;Laerm;55473;48.800;9.002;2023-03-14T04:51:19;57.96;42.27;73.38;;
186;Laerm;55473;48.800;9.002;2023-03-14T04:53:48;58.65;42.01;73.30;;
186;Laerm;55473;48.800;9.002;2023-03-14T04:56:14;59.69;42.73;75.38;;
186;Laerm;55473;48.800;9.002;2023-03-14T04:58:40;58.58;43.78;74.72;;
186;Laerm;55473;48.800;9.002;2023-03-14T05:01:06;57.14;43.74;73.85;;
186;Laerm;55473;48.800;9.002;2023-03-14T05:03:32;59.24;44.69;71.80;;
186;Laerm;55473;48.800;9.002;2023-03-14T05:05:58;59.31;45.54;72.39;;
186;Laerm;55473;48.800;9.002;2023-03-14T05:08:24;57.06;44.94;68.99;;
186;Laerm;55473;48.800;9.002;2023-03-14T05:10:54;57.94;44.35;71.14;;
186;Laerm;55473;48.800;9.002;2023-03-14T05:13:21;55.97;43.50;69.43;;
186;Laerm;55473;48.800;9.002;2023-03-14T05:15:47;53.27;42.88;67.81;;
186;Laerm;55473;48.800;9.002;2023-03-14T05:18:18;53.81;44.80;66.66;;
186;Laerm;55473;48.800;9.002;2023-03-14T05:20:44;54.30;42.50;66.91;;
186;Laerm;55473;48.800;9.002;2023-03-14T05:23:10;56.59;42.59;74.80;;
186;Laerm;55473;48.800;9.002;2023-03-14T05:25:36;48.75;42.33;58.53;;
186;Laerm;55473;48.800;9.002;2023-03-14T05:28:01;51.80;43.51;66.05;;
186;Laerm;55473;48.800;9.002;2023-03-14T05:30:27;51.82;43.30;66.42;;
186;Laerm;55473;48.800;9.002;2023-03-14T05:32:54;49.44;43.24;62.99;;
186;Laerm;55473;48.800;9.002;2023-03-14T05:35:20;48.35;44.68;59.78;;
186;Laerm;55473;48.800;9.002;2023-03-14T05:37:45;49.89;44.46;63.95;;
186;Laerm;55473;48.800;9.002;2023-03-14T05:40:11;53.03;43.44;72.04;;
186;Laerm;55473;48.800;9.002;2023-03-14T05:42:37;47.32;43.38;56.77;;
186;Laerm;55473;48.800;9.002;2023-03-14T05:45:04;49.26;43.43;64.35;;
186;Laerm;55473;48.800;9.002;2023-03-14T05:47:30;49.45;43.64;65.05;;
186;Laerm;55473;48.800;9.002;2023-03-14T05:49:56;48.64;44.52;58.10;;
186;Laerm;55473;48.800;9.002;2023-03-14T05:52:21;48.12;42.81;60.25;;
186;Laerm;55473;48.800;9.002;2023-03-14T05:54:47;47.75;43.36;62.84;;
186;Laerm;55473;48.800;9.002;2023-03-14T05:57:13;48.72;43.49;64.82;;
186;Laerm;55473;48.800;9.002;2023-03-14T05:59:39;49.66;42.92;64.63;;
186;Laerm;55473;48.800;9.002;2023-03-14T06:02:05;49.62;44.08;60.93;;
186;Laerm;55473;48.800;9.002;2023-03-14T06:04:31;50.61;44.55;61.18;;
186;Laerm;55473;48.800;9.002;2023-03-14T06:06:57;52.25;44.97;66.63;;
186;Laerm;55473;48.800;9.002;2023-03-14T06:09:23;49.13;43.66;62.80;;
186;Laerm;55473;48.800;9.002;2023-03-14T06:11:49;47.99;43.48;60.18;;
186;Laerm;55473;48.800;9.002;2023-03-14T06:14:15;49.90;44.43;67.24;;
186;Laerm;55473;48.800;9.002;2023-03-14T06:16:41;51.26;43.97;68.21;;
186;Laerm;55473;48.800;9.002;2023-03-14T06:19:07;49.85;44.38;61.50;;
186;Laerm;55473;48.800;9.002;2023-03-14T06:21:33;49.41;44.63;66.06;;
186;Laerm;55473;48.800;9.002;2023-03-14T06:23:58;51.70;44.82;65.44;;
186;Laerm;55473;48.800;9.002;2023-03-14T06:26:24;52.00;44.51;66.14;;
186;Laerm;55473;48.800;9.002;2023-03-14T06:28:50;50.34;45.22;66.44;;
186;Laerm;55473;48.800;9.002;2023-03-14T06:31:17;51.92;43.92;71.12;;
186;Laerm;55473;48.800;9.002;2023-03-14T06:33:43;57.03;45.22;73.27;;
186;Laerm;55473;48.800;9.002;2023-03-14T06:36:09;57.84;45.21;78.09;;
186;Laerm;55473;48.800;9.002;2023-03-14T06:38:35;50.72;44.21;63.16;;
186;Laerm;55473;48.800;9.002;2023-03-14T06:41:06;50.41;44.16;62.40;;
186;Laerm;55473;48.800;9.002;2023-03-14T06:43:32;52.24;44.34;67.14;;
186;Laerm;55473;48.800;9.002;2023-03-14T06:45:58;49.76;44.44;61.53;;
186;Laerm;55473;48.800;9.002;2023-03-14T06:48:24;50.01;44.10;62.09;;
186;Laerm;55473;48.800;9.002;2023-03-14T06:50:51;47.75;43.23;59.16;;
186;Laerm;55473;48.800;9.002;2023-03-14T06:53:17;50.09;43.31;64.18;;
186;Laerm;55473;48.800;9.002;2023-03-14T06:55:43;49.81;43.42;66.44;;
186;Laerm;55473;48.800;9.002;2023-03-14T06:58:11;46.95;42.62;56.11;;
186;Laerm;55473;48.800;9.002;2023-03-14T07:00:37;48.56;42.34;62.30;;
186;Laerm;55473;48.800;9.002;2023-03-14T07:03:02;48.69;42.65;61.61;;
186;Laerm;55473;48.800;9.002;2023-03-14T07:05:29;48.82;41.89;65.59;;
186;Laerm;55473;48.800;9.002;2023-03-14T07:07:55;49.49;43.45;62.14;;
186;Laerm;55473;48.800;9.002;2023-03-14T07:10:22;48.92;43.89;60.03;;
186;Laerm;55473;48.800;9.002;2023-03-14T07:12:47;52.40;44.08;75.08;;
186;Laerm;55473;48.800;9.002;2023-03-14T07:15:13;59.69;43.91;77.78;;
186;Laerm;55473;48.800;9.002;2023-03-14T07:17:39;50.79;44.60;66.81;;
186;Laerm;55473;48.800;9.002;2023-03-14T07:20:06;48.43;43.08;67.70;;
186;Laerm;55473;48.800;9.002;2023-03-14T07:22:33;50.35;45.16;67.09;;
186;Laerm;55473;48.800;9.002;2023-03-14T07:24:59;49.71;42.82;67.38;;
186;Laerm;55473;48.800;9.002;2023-03-14T07:27:24;49.33;42.97;73.83;;
186;Laerm;55473;48.800;9.002;2023-03-14T07:29:50;47.59;42.35;61.66;;
186;Laerm;55473;48.800;9.002;2023-03-14T07:32:16;51.77;43.27;71.22;;
186;Laerm;55473;48.800;9.002;2023-03-14T07:34:42;67.20;43.97;80.10;;
186;Laerm;55473;48.800;9.002;2023-03-14T07:37:09;57.60;42.72;75.70;;
186;Laerm;55473;48.800;9.002;2023-03-14T07:39:34;55.72;43.48;71.64;;
186;Laerm;55473;48.800;9.002;2023-03-14T07:42:00;50.69;43.64;68.69;;
186;Laerm;55473;48.800;9.002;2023-03-14T07:44:26;48.44;41.69;65.49;;
186;Laerm;55473;48.800;9.002;2023-03-14T07:46:52;51.14;43.11;63.94;;
186;Laerm;55473;48.800;9.002;2023-03-14T07:49:18;52.86;43.34;68.14;;
186;Laerm;55473;48.800;9.002;2023-03-14T07:51:48;50.96;42.92;63.37;;
186;Laerm;55473;48.800;9.002;2023-03-14T07:54:14;53.95;44.21;66.69;;
186;Laerm;55473;48.800;9.002;2023-03-14T07:56:40;53.04;42.76;70.03;;
186;Laerm;55473;48.800;9.002;2023-03-14T07:59:06;53.63;43.30;71.13;;
186;Laerm;55473;48.800;9.002;2023-03-14T08:01:32;55.70;44.56;74.67;;
186;Laerm;55473;48.800;9.002;2023-03-14T08:03:58;48.01;42.66;59.29;;
186;Laerm;55473;48.800;9.002;2023-03-14T08:06:24;50.13;44.39;64.52;;
186;Laerm;55473;48.800;9.002;2023-03-14T08:08:50;51.16;43.90;63.24;;
186;Laerm;55473;48.800;9.002;2023-03-14T08:11:16;49.61;44.48;63.61;;
186;Laerm;55473;48.800;9.002;2023-03-14T08:13:42;49.12;43.33;66.75;;
186;Laerm;55473;48.800;9.002;2023-03-14T08:16:16;47.74;41.47;62.10;;
186;Laerm;55473;48.800;9.002;2023-03-14T08:18:43;53.77;44.39;67.71;;
186;Laerm;55473;48.800;9.002;2023-03-14T08:21:10;48.93;43.06;68.55;;
186;Laerm;55473;48.800;9.002;2023-03-14T08:23:36;50.95;42.71;65.91;;
186;Laerm;55473;48.800;9.002;2023-03-14T08:26:03;48.96;43.13;62.02;;
186;Laerm;55473;48.800;9.002;2023-03-14T08:28:28;49.63;44.02;67.09;;
186;Laerm;55473;48.800;9.002;2023-03-14T08:30:57;50.01;42.75;65.53;;
186;Laerm;55473;48.800;9.002;2023-03-14T08:33:24;51.14;42.46;65.53;;
186;Laerm;55473;48.800;9.002;2023-03-14T08:35:59;49.90;43.90;61.88;;
186;Laerm;55473;48.800;9.002;2023-03-14T08:38:26;49.79;42.83;62.31;;
186;Laerm;55473;48.800;9.002;2023-03-14T08:40:59;51.79;42.43;63.93;;
186;Laerm;55473;48.800;9.002;2023-03-14T08:43:27;48.81;44.23;60.69;;
186;Laerm;55473;48.800;9.002;2023-03-14T08:45:58;49.44;44.18;58.49;;
186;Laerm;55473;48.800;9.002;2023-03-14T08:48:24;52.89;45.36;69.22;;
186;Laerm;55473;48.800;9.002;2023-03-14T08:50:50;51.49;45.00;66.53;;
186;Laerm;55473;48.800;9.002;2023-03-14T08:53:15;50.88;44.01;66.31;;
186;Laerm;55473;48.800;9.002;2023-03-14T08:55:41;47.90;43.24;63.36;;
186;Laerm;55473;48.800;9.002;2023-03-14T08:58:07;51.20;43.32;65.31;;
186;Laerm;55473;48.800;9.002;2023-03-14T09:00:33;51.21;43.18;65.98;;
186;Laerm;55473;48.800;9.002;2023-03-14T09:02:59;50.13;43.74;66.36;;
186;Laerm;55473;48.800;9.002;2023-03-14T09:05:25;49.38;42.90;66.55;;
186;Laerm;55473;48.800;9.002;2023-03-14T09:07:51;51.47;43.71;67.79;;
186;Laerm;55473;48.800;9.002;2023-03-14T09:10:17;48.59;43.95;58.30;;
186;Laerm;55473;48.800;9.002;2023-03-14T09:12:42;49.21;43.59;58.82;;
186;Laerm;55473;48.800;9.002;2023-03-14T09:15:09;47.99;43.29;57.88;;
186;Laerm;55473;48.800;9.002;2023-03-14T09:17:35;49.18;43.45;61.48;;
186;Laerm;55473;48.800;9.002;2023-03-14T09:20:03;46.91;42.58;61.98;;
186;Laerm;55473;48.800;9.002;2023-03-14T09:22:32;49.87;42.92;63.91;;
186;Laerm;55473;48.800;9.002;2023-03-14T09:25:00;47.88;43.15;59.35;;
186;Laerm;55473;48.800;9.002;2023-03-14T09:27:26;46.52;42.36;57.36;;
186;Laerm;55473;48.800;9.002;2023-03-14T09:29:51;48.37;42.53;63.34;;
186;Laerm;55473;48.800;9.002;2023-03-14T09:32:17;50.06;43.37;64.19;;
186;Laerm;55473;48.800;9.002;2023-03-14T09:34:43;49.68;42.99;63.44;;
186;Laerm;55473;48.800;9.002;2023-03-14T09:37:09;47.55;43.26;60.02;;
186;Laerm;55473;48.800;9.002;2023-03-14T09:39:35;51.62;42.91;72.40;;
186;Laerm;55473;48.800;9.002;2023-03-14T09:42:06;50.26;43.96;62.03;;
186;Laerm;55473;48.800;9.002;2023-03-14T09:44:57;50.91;42.56;65.54;;
186;Laerm;55473;48.800;9.002;2023-03-14T09:47:26;48.49;42.12;60.77;;
186;Laerm;55473;48.800;9.002;2023-03-14T09:49:52;48.85;43.22;60.56;;
186;Laerm;55473;48.800;9.002;2023-03-14T09:52:25;47.85;43.26;62.12;;
186;Laerm;55473;48.800;9.002;2023-03-14T09:55:13;48.67;43.23;65.12;;
186;Laerm;55473;48.800;9.002;2023-03-14T09:57:41;48.18;42.62;60.52;;
186;Laerm;55473;48.800;9.002;2023-03-14T10:00:23;49.58;43.26;63.98;;
186;Laerm;55473;48.800;9.002;2023-03-14T10:05:43;50.56;43.33;63.45;;
186;Laerm;55473;48.800;9.002;2023-03-14T10:08:13;54.66;44.89;71.83;;
186;Laerm;55473;48.800;9.002;2023-03-14T10:10:40;50.58;43.82;65.75;;
186;Laerm;55473;48.800;9.002;2023-03-14T10:13:21;49.84;44.88;63.19;;
186;Laerm;55473;48.800;9.002;2023-03-14T10:16:01;51.45;44.95;71.00;;
186;Laerm;55473;48.800;9.002;2023-03-14T10:18:31;53.16;44.37;66.39;;
186;Laerm;55473;48.800;9.002;2023-03-14T10:21:27;53.19;44.13;65.45;;
186;Laerm;55473;48.800;9.002;2023-03-14T10:23:54;50.14;42.82;60.85;;
186;Laerm;55473;48.800;9.002;2023-03-14T10:26:27;53.09;42.70;69.51;;
186;Laerm;55473;48.800;9.002;2023-03-14T10:29:03;48.52;43.07;64.81;;
186;Laerm;55473;48.800;9.002;2023-03-14T10:32:00;47.60;42.90;57.41;;
186;Laerm;55473;48.800;9.002;2023-03-14T10:34:34;52.29;44.86;68.46;;
186;Laerm;55473;48.800;9.002;2023-03-14T10:37:22;49.96;44.04;62.72;;
186;Laerm;55473;48.800;9.002;2023-03-14T10:39:55;50.48;44.93;69.13;;
186;Laerm;55473;48.800;9.002;2023-03-14T10:42:29;53.41;47.19;65.85;;
186;Laerm;55473;48.800;9.002;2023-03-14T10:45:02;51.60;45.01;73.09;;
186;Laerm;55473;48.800;9.002;2023-03-14T10:47:29;50.34;45.14;62.18;;
186;Laerm;55473;48.800;9.002;2023-03-14T10:49:56;50.50;44.64;67.33;;
186;Laerm;55473;48.800;9.002;2023-03-14T10:52:28;50.54;44.57;64.25;;
186;Laerm;55473;48.800;9.002;2023-03-14T10:55:00;47.37;43.03;59.40;;
186;Laerm;55473;48.800;9.002;2023-03-14T10:57:27;48.61;44.05;59.92;;
186;Laerm;55473;48.800;9.002;2023-03-14T10:59:56;48.14;42.89;62.24;;
186;Laerm;55473;48.800;9.002;2023-03-14T11:03:12;53.85;43.27;72.90;;
186;Laerm;55473;48.800;9.002;2023-03-14T11:06:23;51.24;43.66;75.99;;
186;Laerm;55473;48.800;9.002;2023-03-14T11:09:15;50.02;43.89;64.63;;
186;Laerm;55473;48.800;9.002;2023-03-14T11:11:47;48.42;44.54;63.45;;
186;Laerm;55473;48.800;9.002;2023-03-14T11:14:36;48.93;43.17;61.86;;
186;Laerm;55473;48.800;9.002;2023-03-14T11:23:31;48.69;43.85;62.31;;
186;Laerm;55473;48.800;9.002;2023-03-14T11:31:00;48.57;44.21;65.02;;
186;Laerm;55473;48.800;9.002;2023-03-14T11:33:50;48.98;42.83;60.11;;
186;Laerm;55473;48.800;9.002;2023-03-14T11:36:27;48.25;42.47;65.32;;
186;Laerm;55473;48.800;9.002;2023-03-14T11:38:59;48.95;43.27;62.47;;
186;Laerm;55473;48.800;9.002;2023-03-14T11:41:42;49.15;45.40;60.13;;
186;Laerm;55473;48.800;9.002;2023-03-14T11:44:28;52.36;46.25;66.40;;
186;Laerm;55473;48.800;9.002;2023-03-14T11:50:17;50.93;44.60;69.44;;
186;Laerm;55473;48.800;9.002;2023-03-14T11:52:54;51.60;42.78;67.06;;
186;Laerm;55473;48.800;9.002;2023-03-14T11:55:34;55.94;43.18;73.66;;
186;Laerm;55473;48.800;9.002;2023-03-14T11:58:34;53.72;43.63;70.43;;
186;Laerm;55473;48.800;9.002;2023-03-14T12:01:10;51.56;44.41;67.72;;
186;Laerm;55473;48.800;9.002;2023-03-14T12:03:57;53.21;46.12;68.59;;
186;Laerm;55473;48.800;9.002;2023-03-14T12:06:49;51.83;44.81;69.30;;
186;Laerm;55473;48.800;9.002;2023-03-14T12:09:19;55.16;46.94;76.52;;
186;Laerm;55473;48.800;9.002;2023-03-14T12:11:56;52.18;45.63;67.80;;
186;Laerm;55473;48.800;9.002;2023-03-14T12:14:32;50.49;45.58;65.03;;
186;Laerm;55473;48.800;9.002;2023-03-14T12:17:21;54.15;47.99;74.84;;
186;Laerm;55473;48.800;9.002;2023-03-14T12:20:15;54.14;47.80;69.24;;
186;Laerm;55473;48.800;9.002;2023-03-14T12:22:54;55.06;47.76;72.77;;
186;Laerm;55473;48.800;9.002;2023-03-14T12:25:26;54.08;47.08;64.04;;
186;Laerm;55473;48.800;9.002;2023-03-14T12:35:40;54.16;46.57;71.37;;
186;Laerm;55473;48.800;9.002;2023-03-14T12:38:52;55.67;46.65;76.20;;
186;Laerm;55473;48.800;9.002;2023-03-14T12:41:43;55.18;46.95;68.50;;
186;Laerm;55473;48.800;9.002;2023-03-14T12:47:00;55.07;46.02;68.72;;
186;Laerm;55473;48.800;9.002;2023-03-14T12:49:40;55.19;48.56;68.68;;
186;Laerm;55473;48.800;9.002;2023-03-14T12:52:19;54.15;46.04;65.75;;
186;Laerm;55473;48.800;9.002;2023-03-14T12:57:45;54.16;47.09;65.32;;
186;Laerm;55473;48.800;9.002;2023-03-14T13:02:48;52.49;45.40;63.62;;
186;Laerm;55473;48.800;9.002;2023-03-14T13:05:23;54.93;45.47;65.45;;
186;Laerm;55473;48.800;9.002;2023-03-14T13:10:30;52.77;46.49;74.00;;
186;Laerm;55473;48.800;9.002;2023-03-14T13:13:23;50.42;44.13;61.78;;
186;Laerm;55473;48.800;9.002;2023-03-14T13:15:59;52.07;45.26;64.15;;
186;Laerm;55473;48.800;9.002;2023-03-14T13:18:43;55.32;47.67;76.14;;
186;Laerm;55473;48.800;9.002;2023-03-14T13:21:21;56.10;46.59;68.75;;
186;Laerm;55473;48.800;9.002;2023-03-14T13:26:40;52.81;45.22;66.94;;
186;Laerm;55473;48.800;9.002;2023-03-14T13:29:31;53.13;45.24;76.87;;
186;Laerm;55473;48.800;9.002;2023-03-14T13:32:01;55.36;44.03;77.09;;
186;Laerm;55473;48.800;9.002;2023-03-14T13:34:33;50.81;43.79;71.84;;
186;Laerm;55473;48.800;9.002;2023-03-14T13:37:00;50.39;45.25;64.91;;
186;Laerm;55473;48.800;9.002;2023-03-14T13:39:28;51.47;44.98;66.66;;
186;Laerm;55473;48.800;9.002;2023-03-14T13:41:59;49.08;44.52;62.94;;
186;Laerm;55473;48.800;9.002;2023-03-14T13:44:39;49.58;43.77;68.76;;
186;Laerm;55473;48.800;9.002;2023-03-14T13:47:17;50.39;43.47;62.84;;
186;Laerm;55473;48.800;9.002;2023-03-14T13:49:45;49.41;43.52;69.42;;
186;Laerm;55473;48.800;9.002;2023-03-14T13:52:32;48.82;42.91;60.00;;
186;Laerm;55473;48.800;9.002;2023-03-14T13:55:03;53.20;45.94;68.42;;
186;Laerm;55473;48.800;9.002;2023-03-14T13:57:52;53.43;45.71;66.79;;
186;Laerm;55473;48.800;9.002;2023-03-14T14:00:26;54.14;47.77;68.47;;
186;Laerm;55473;48.800;9.002;2023-03-14T14:02:55;56.49;48.46;65.08;;
186;Laerm;55473;48.800;9.002;2023-03-14T14:05:27;57.52;50.84;68.85;;
186;Laerm;55473;48.800;9.002;2023-03-14T14:07:53;54.93;48.87;65.61;;
186;Laerm;55473;48.800;9.002;2023-03-14T14:10:21;53.28;46.84;74.96;;
186;Laerm;55473;48.800;9.002;2023-03-14T14:13:02;51.82;45.63;66.64;;
186;Laerm;55473;48.800;9.002;2023-03-14T14:15:35;55.01;45.88;71.45;;
186;Laerm;55473;48.800;9.002;2023-03-14T14:18:06;55.26;48.58;71.25;;
186;Laerm;55473;48.800;9.002;2023-03-14T14:20:39;56.95;46.54;75.91;;
186;Laerm;55473;48.800;9.002;2023-03-14T14:23:17;57.23;46.81;68.60;;
186;Laerm;55473;48.800;9.002;2023-03-14T14:25:45;57.48;49.01;71.64;;
186;Laerm;55473;48.800;9.002;2023-03-14T14:28:28;55.08;46.82;71.08;;
186;Laerm;55473;48.800;9.002;2023-03-14T14:31:04;52.43;46.46;66.64;;
186;Laerm;55473;48.800;9.002;2023-03-14T14:33:43;52.29;46.21;65.69;;
186;Laerm;55473;48.800;9.002;2023-03-14T14:36:39;58.45;48.05;68.27;;
186;Laerm;55473;48.800;9.002;2023-03-14T14:41:44;53.11;44.10;70.25;;
186;Laerm;55473;48.800;9.002;2023-03-14T14:44:18;50.54;43.94;64.95;;
186;Laerm;55473;48.800;9.002;2023-03-14T14:46:47;49.93;43.09;73.17;;
186;Laerm;55473;48.800;9.002;2023-03-14T14:49:18;52.37;43.18;73.19;;
186;Laerm;55473;48.800;9.002;2023-03-14T14:51:49;49.03;42.83;63.30;;
186;Laerm;55473;48.800;9.002;2023-03-14T14:54:53;48.51;42.51;69.16;;
186;Laerm;55473;48.800;9.002;2023-03-14T14:57:27;52.87;44.97;67.93;;
186;Laerm;55473;48.800;9.002;2023-03-14T15:00:03;52.59;45.30;65.25;;
186;Laerm;55473;48.800;9.002;2023-03-14T15:02:39;52.40;44.12;70.85;;
186;Laerm;55473;48.800;9.002;2023-03-14T15:05:15;52.62;42.98;66.57;;
186;Laerm;55473;48.800;9.002;2023-03-14T15:07:42;48.50;42.88;68.55;;
186;Laerm;55473;48.800;9.002;2023-03-14T15:10:15;52.54;42.74;69.04;;
186;Laerm;55473;48.800;9.002;2023-03-14T15:12:41;47.18;42.36;57.35;;
186;Laerm;55473;48.800;9.002;2023-03-14T15:15:08;46.11;42.06;60.45;;
186;Laerm;55473;48.800;9.002;2023-03-14T15:17:35;49.15;42.55;62.68;;
186;Laerm;55473;48.800;9.002;2023-03-14T15:20:04;51.92;42.84;65.21;;